Time;durP1;ratioP1;P1;durP2;ratioP2;P2;SDS_P1;SDS_P2;PMS_P1;PMS_P2;Temp;Humidity;BMP_temperature;BMP_pressure;BME280_temperature;BME280_humidity;BME280_pressure;Samples;Min_cycle;Max_cycle;Signal;HPM_P1;HPM_P2
2022/05/26 00:00:58;;;;;;;;;;;16.70;70.80;;;;;;5025175;28;19952;-73
2022/05/26 00:03:24;;;;;;;;;;;16.70;71.00;;;;;;5024509;28;20020;-73
2022/05/26 00:05:49;;;;;;;;;;;16.70;71.10;;;;;;5025285;28;19921;-73
2022/05/26 00:08:15;;;;;;;;;;;16.70;71.00;;;;;;5049453;28;20285;-74
2022/05/26 00:10:40;;;;;;;;;;;16.70;71.00;;;;;;5045569;28;19919;-73
2022/05/26 00:13:06;;;;;;;;;;;16.70;71.20;;;;;;5056320;28;19919;-73
2022/05/26 00:15:32;;;;;;;;;;;16.70;71.10;;;;;;5064945;28;19909;-74
2022/05/26 00:17:58;;;;;;;;;;;16.70;71.20;;;;;;5058291;28;19917;-73
2022/05/26 00:20:23;;;;;;;;;;;16.70;71.50;;;;;;5068292;28;19923;-74
2022/05/26 00:22:49;;;;;;;;;;;16.70;71.40;;;;;;5066066;28;19939;-74
2022/05/26 00:25:14;;;;;;;;;;;16.70;71.30;;;;;;5068246;28;19917;-74
2022/05/26 00:27:40;;;;;;;;;;;16.70;71.30;;;;;;5065735;28;20015;-73
2022/05/26 00:30:06;;;;;;;;;;;16.70;71.50;;;;;;5059709;28;19923;-73
2022/05/26 00:32:34;;;;;;;;;;;16.60;71.50;;;;;;5048161;28;21573;-74
2022/05/26 00:34:59;;;;;;;;;;;16.60;71.60;;;;;;5048278;28;20015;-73
2022/05/26 00:37:24;;;;;;;;;;;16.60;71.80;;;;;;5030599;28;19916;-73
2022/05/26 00:39:50;;;;;;;;;;;16.60;71.80;;;;;;5052462;28;20059;-73
2022/05/26 00:42:15;;;;;;;;;;;16.60;71.80;;;;;;5048497;28;19917;-73
2022/05/26 00:44:42;;;;;;;;;;;16.60;71.90;;;;;;5062401;28;19913;-73
2022/05/26 00:47:27;;;;;;;;;;;16.60;72.00;;;;;;5050097;28;19917;-73
2022/05/26 00:50:22;;;;;;;;;;;16.60;72.20;;;;;;5049910;28;19971;-73
2022/05/26 00:53:11;;;;;;;;;;;16.60;72.10;;;;;;5016126;28;20277;-73
2022/05/26 00:55:40;;;;;;;;;;;16.60;72.10;;;;;;5027919;28;19924;-73
2022/05/26 00:58:14;;;;;;;;;;;16.60;72.20;;;;;;5028233;28;19956;-73
2022/05/26 01:00:40;;;;;;;;;;;16.60;72.30;;;;;;5065741;28;19917;-73
2022/05/26 01:03:06;;;;;;;;;;;16.50;72.10;;;;;;5067769;28;19909;-73
2022/05/26 01:05:33;;;;;;;;;;;16.50;72.20;;;;;;5064857;28;19919;-73
2022/05/26 01:08:00;;;;;;;;;;;16.50;72.40;;;;;;5062930;28;19917;-73
2022/05/26 01:10:25;;;;;;;;;;;16.50;72.40;;;;;;5059775;28;19920;-73
2022/05/26 01:12:51;;;;;;;;;;;16.50;72.50;;;;;;5066446;28;19912;-74
2022/05/26 01:15:18;;;;;;;;;;;16.50;72.60;;;;;;5064000;28;19951;-74
2022/05/26 01:17:47;;;;;;;;;;;16.50;72.60;;;;;;5066943;28;20594;-73
2022/05/26 01:20:18;;;;;;;;;;;16.50;72.80;;;;;;5064211;28;20304;-73
2022/05/26 01:23:02;;;;;;;;;;;16.50;72.70;;;;;;5066472;28;19916;-74
2022/05/26 01:25:46;;;;;;;;;;;16.50;72.80;;;;;;5063423;28;20508;-73
2022/05/26 01:28:11;;;;;;;;;;;16.50;72.90;;;;;;5065763;28;20004;-73
2022/05/26 01:30:37;;;;;;;;;;;16.50;73.10;;;;;;5064108;28;19966;-73
2022/05/26 01:33:05;;;;;;;;;;;16.50;73.10;;;;;;5062875;28;19913;-73
2022/05/26 01:35:36;;;;;;;;;;;16.50;73.00;;;;;;5051405;28;19962;-73
2022/05/26 01:38:02;;;;;;;;;;;16.50;73.20;;;;;;5062126;28;19908;-73
2022/05/26 01:40:57;;;;;;;;;;;16.50;73.30;;;;;;5049218;28;19921;-73
2022/05/26 01:43:28;;;;;;;;;;;16.40;73.20;;;;;;5045210;28;19908;-74
2022/05/26 01:45:57;;;;;;;;;;;16.40;73.20;;;;;;5064100;28;19916;-74
2022/05/26 01:48:29;;;;;;;;;;;16.40;73.30;;;;;;5063553;28;19913;-73
2022/05/26 01:51:07;;;;;;;;;;;16.40;73.20;;;;;;5050055;28;20643;-73
2022/05/26 01:53:50;;;;;;;;;;;16.40;73.30;;;;;;5052603;28;19952;-73
2022/05/26 01:56:25;;;;;;;;;;;16.40;73.30;;;;;;5050630;28;19962;-73
2022/05/26 01:59:07;;;;;;;;;;;16.40;73.60;;;;;;5066846;28;19909;-73
2022/05/26 02:01:37;;;;;;;;;;;16.40;73.70;;;;;;5064475;28;19942;-73
2022/05/26 02:04:05;;;;;;;;;;;16.40;73.90;;;;;;5060179;28;19913;-73
2022/05/26 02:06:36;;;;;;;;;;;16.40;73.70;;;;;;5035070;28;19917;-74
2022/05/26 02:09:06;;;;;;;;;;;16.30;73.70;;;;;;5058823;28;19908;-74
2022/05/26 02:11:33;;;;;;;;;;;16.40;73.80;;;;;;5064004;28;20527;-74
2022/05/26 02:14:07;;;;;;;;;;;16.40;73.80;;;;;;5065943;28;19919;-73
2022/05/26 02:16:42;;;;;;;;;;;16.40;73.80;;;;;;5063216;28;19952;-72
2022/05/26 02:19:11;;;;;;;;;;;16.40;73.90;;;;;;5066433;28;20011;-73
2022/05/26 02:21:44;;;;;;;;;;;16.30;74.10;;;;;;5062731;28;19935;-74
2022/05/26 02:24:16;;;;;;;;;;;16.30;74.30;;;;;;5066100;28;19952;-73
2022/05/26 02:26:41;;;;;;;;;;;16.30;74.00;;;;;;5064039;28;19920;-73
2022/05/26 02:31:52;;;;;;;;;;;16.30;74.50;;;;;;5065599;28;19918;-73
2022/05/26 02:34:19;;;;;;;;;;;16.30;74.70;;;;;;5050759;28;19917;-72
2022/05/26 02:36:46;;;;;;;;;;;16.30;74.90;;;;;;5045987;28;19917;-73
2022/05/26 02:39:12;;;;;;;;;;;16.30;74.80;;;;;;5046841;28;19943;-73
2022/05/26 02:41:38;;;;;;;;;;;16.30;75.00;;;;;;5045742;28;19916;-73
2022/05/26 02:44:04;;;;;;;;;;;16.20;75.00;;;;;;5049384;28;19922;-74
2022/05/26 02:46:48;;;;;;;;;;;16.30;75.00;;;;;;5046029;28;19916;-74
2022/05/26 02:49:16;;;;;;;;;;;16.20;74.90;;;;;;5046875;28;20521;-73
2022/05/26 02:51:58;;;;;;;;;;;16.30;75.20;;;;;;5046132;28;19917;-73
2022/05/26 02:54:23;;;;;;;;;;;16.30;75.10;;;;;;5057898;28;20342;-73
2022/05/26 02:57:07;;;;;;;;;;;16.30;74.90;;;;;;5066020;28;19923;-74
2022/05/26 02:59:33;;;;;;;;;;;16.30;75.00;;;;;;5063793;28;19948;-73
2022/05/26 03:02:21;;;;;;;;;;;16.20;75.00;;;;;;5066083;28;19956;-74
2022/05/26 03:04:49;;;;;;;;;;;16.20;75.10;;;;;;5061923;28;20517;-73
2022/05/26 03:07:34;;;;;;;;;;;16.20;75.20;;;;;;5045711;28;20277;-73
2022/05/26 03:10:05;;;;;;;;;;;16.20;75.30;;;;;;5052794;28;20029;-73
2022/05/26 03:12:33;;;;;;;;;;;16.20;75.30;;;;;;5066271;28;20516;-73
2022/05/26 03:14:59;;;;;;;;;;;16.20;75.70;;;;;;5063485;28;19913;-73
2022/05/26 03:17:24;;;;;;;;;;;16.20;76.00;;;;;;5065658;28;19928;-73
2022/05/26 03:19:50;;;;;;;;;;;16.20;75.90;;;;;;5062507;28;19965;-73
2022/05/26 03:22:16;;;;;;;;;;;16.20;76.30;;;;;;5065924;28;19923;-73
2022/05/26 03:24:41;;;;;;;;;;;16.20;75.90;;;;;;5044600;28;20634;-73
2022/05/26 03:27:07;;;;;;;;;;;16.20;75.90;;;;;;5065450;28;19927;-73
2022/05/26 03:29:32;;;;;;;;;;;16.20;76.00;;;;;;5062801;28;20377;-73
2022/05/26 03:31:58;;;;;;;;;;;16.20;76.30;;;;;;5065989;28;20595;-73
2022/05/26 03:42:40;;;;;;;;;;;16.10;76.10;;;;;;5065478;28;19977;-74
2022/05/26 03:45:06;;;;;;;;;;;16.10;76.30;;;;;;5063823;28;19913;-73
2022/05/26 03:47:32;;;;;;;;;;;16.10;76.40;;;;;;5065872;28;20179;-73
2022/05/26 03:49:57;;;;;;;;;;;16.20;76.30;;;;;;5049138;28;20017;-73
2022/05/26 03:52:23;;;;;;;;;;;16.10;76.60;;;;;;5055176;28;19917;-73
2022/05/26 03:54:49;;;;;;;;;;;16.10;76.50;;;;;;5040493;28;20373;-73
2022/05/26 03:57:21;;;;;;;;;;;16.10;76.40;;;;;;5044015;28;19921;-73
2022/05/26 03:59:46;;;;;;;;;;;16.10;76.70;;;;;;5018905;28;19921;-73
2022/05/26 04:02:12;;;;;;;;;;;16.10;76.60;;;;;;5044163;28;19974;-73
2022/05/26 04:04:37;;;;;;;;;;;16.10;76.60;;;;;;5040146;28;19920;-73
2022/05/26 04:07:03;;;;;;;;;;;16.10;76.60;;;;;;5037836;28;19917;-73
2022/05/26 04:09:28;;;;;;;;;;;16.10;77.10;;;;;;5043649;28;19912;-73
2022/05/26 04:11:54;;;;;;;;;;;16.10;77.00;;;;;;5056606;28;19977;-73
2022/05/26 04:14:19;;;;;;;;;;;16.00;77.00;;;;;;5068496;28;19912;-73
2022/05/26 04:16:44;;;;;;;;;;;16.10;77.20;;;;;;5065589;28;19917;-73
2022/05/26 04:19:10;;;;;;;;;;;16.10;77.10;;;;;;5068331;28;19923;-73
2022/05/26 04:21:36;;;;;;;;;;;16.00;77.00;;;;;;5064452;28;20273;-73
2022/05/26 04:24:01;;;;;;;;;;;16.00;77.20;;;;;;5068243;28;19939;-73
2022/05/26 04:26:26;;;;;;;;;;;16.00;76.90;;;;;;5064605;28;19919;-73
2022/05/26 04:29:13;;;;;;;;;;;16.00;77.00;;;;;;5066259;28;19912;-73
2022/05/26 04:31:37;;;;;;;;;;;16.00;77.10;;;;;;5064875;28;20030;-73
2022/05/26 04:34:03;;;;;;;;;;;16.00;77.50;;;;;;5055067;28;20475;-73
2022/05/26 04:36:28;;;;;;;;;;;16.00;77.60;;;;;;5047173;28;19919;-73
2022/05/26 04:38:56;;;;;;;;;;;16.00;77.70;;;;;;5051202;28;19921;-73
2022/05/26 04:41:21;;;;;;;;;;;16.00;77.80;;;;;;5047282;28;20031;-72
2022/05/26 04:43:47;;;;;;;;;;;16.00;77.70;;;;;;5060919;28;19916;-73
2022/05/26 04:46:12;;;;;;;;;;;16.00;78.10;;;;;;5048803;28;19934;-73
2022/05/26 04:48:38;;;;;;;;;;;16.00;78.10;;;;;;5058351;28;20443;-73
2022/05/26 04:51:03;;;;;;;;;;;16.00;78.00;;;;;;5047207;28;19912;-73
2022/05/26 04:53:29;;;;;;;;;;;16.00;78.30;;;;;;5051056;28;19916;-73
2022/05/26 04:55:57;;;;;;;;;;;15.90;78.60;;;;;;5067210;28;19930;-73
2022/05/26 04:58:23;;;;;;;;;;;16.00;78.90;;;;;;5061688;28;19916;-73
2022/05/26 05:00:49;;;;;;;;;;;16.00;78.50;;;;;;5066514;28;19923;-73
2022/05/26 05:03:15;;;;;;;;;;;16.00;78.40;;;;;;5063816;28;19917;-73
2022/05/26 05:05:40;;;;;;;;;;;16.00;78.50;;;;;;5048506;28;19913;-73
2022/05/26 05:08:06;;;;;;;;;;;16.00;78.60;;;;;;5059698;28;19990;-73
2022/05/26 05:10:31;;;;;;;;;;;16.00;78.80;;;;;;5046639;28;19913;-73
2022/05/26 05:12:58;;;;;;;;;;;16.00;79.00;;;;;;5052624;28;19915;-73
2022/05/26 05:15:25;;;;;;;;;;;16.00;79.40;;;;;;5063415;28;20331;-73
2022/05/26 05:17:50;;;;;;;;;;;16.00;79.50;;;;;;5066461;28;20011;-73
2022/05/26 05:20:16;;;;;;;;;;;16.00;79.60;;;;;;5063116;28;19920;-73
2022/05/26 05:22:49;;;;;;;;;;;16.00;79.60;;;;;;5047899;28;19912;-73
2022/05/26 05:25:20;;;;;;;;;;;16.00;79.50;;;;;;5063406;28;19928;-73
2022/05/26 05:28:00;;;;;;;;;;;16.00;79.30;;;;;;5066311;28;19963;-73
2022/05/26 05:30:31;;;;;;;;;;;16.00;79.60;;;;;;5063774;28;19916;-73
2022/05/26 05:33:01;;;;;;;;;;;16.00;79.70;;;;;;5063175;28;20282;-73
2022/05/26 05:35:49;;;;;;;;;;;16.00;79.70;;;;;;5056674;28;20003;-73
2022/05/26 05:38:15;;;;;;;;;;;16.00;79.60;;;;;;5059399;28;19919;-73
2022/05/26 05:40:40;;;;;;;;;;;16.00;79.60;;;;;;5056935;28;19920;-73
2022/05/26 05:43:06;;;;;;;;;;;16.00;79.90;;;;;;5065999;28;19940;-73
2022/05/26 05:45:31;;;;;;;;;;;16.10;80.00;;;;;;5062784;28;19919;-73
2022/05/26 05:47:57;;;;;;;;;;;16.10;80.10;;;;;;5066098;28;19943;-73
2022/05/26 05:50:22;;;;;;;;;;;16.10;80.50;;;;;;5045003;28;20435;-73
2022/05/26 05:52:48;;;;;;;;;;;16.10;80.70;;;;;;5058521;28;19913;-73
2022/05/26 05:55:13;;;;;;;;;;;16.10;80.70;;;;;;5044368;28;19916;-73
2022/05/26 05:57:39;;;;;;;;;;;16.10;80.80;;;;;;5065471;28;20605;-73
2022/05/26 06:00:05;;;;;;;;;;;16.10;80.40;;;;;;5063187;28;20019;-72
2022/05/26 06:02:31;;;;;;;;;;;16.10;80.60;;;;;;5065868;28;19912;-73
2022/05/26 06:04:57;;;;;;;;;;;16.10;80.50;;;;;;5065760;28;19924;-73
2022/05/26 06:07:23;;;;;;;;;;;16.10;80.50;;;;;;5062418;28;19917;-73
2022/05/26 06:09:49;;;;;;;;;;;16.10;80.50;;;;;;5045598;28;19978;-73
2022/05/26 06:12:16;;;;;;;;;;;16.10;80.50;;;;;;5059483;28;20019;-73
2022/05/26 06:14:46;;;;;;;;;;;16.10;80.50;;;;;;5065093;28;19913;-73
2022/05/26 06:17:11;;;;;;;;;;;16.10;80.70;;;;;;5062402;28;19916;-73
2022/05/26 06:19:38;;;;;;;;;;;16.20;80.50;;;;;;5064853;28;19923;-73
2022/05/26 06:22:09;;;;;;;;;;;16.20;80.60;;;;;;5044474;28;20419;-73
2022/05/26 06:24:36;;;;;;;;;;;16.20;80.80;;;;;;5065190;28;19917;-73
2022/05/26 06:29:49;;;;;;;;;;;16.20;80.90;;;;;;5062108;28;20570;-73
2022/05/26 06:29:50;;;;;;;;;;;16.20;80.90;;;;;;5065052;28;20441;-73
2022/05/26 06:37:45;;;;;;;;;;;16.30;80.80;;;;;;5044649;28;19993;-72
2022/05/26 06:40:10;;;;;;;;;;;16.30;80.80;;;;;;5044729;28;20594;-73
2022/05/26 06:42:36;;;;;;;;;;;16.40;81.20;;;;;;5051537;28;19947;-73
2022/05/26 06:45:01;;;;;;;;;;;16.40;81.20;;;;;;5061995;28;19920;-73
2022/05/26 06:47:27;;;;;;;;;;;16.40;80.90;;;;;;5042996;28;19913;-73
2022/05/26 06:49:52;;;;;;;;;;;16.40;81.10;;;;;;5030412;28;19913;-73
2022/05/26 06:52:21;;;;;;;;;;;16.40;81.00;;;;;;5045012;28;19971;-72
2022/05/26 06:54:47;;;;;;;;;;;16.40;82.20;;;;;;5063964;28;19916;-72
2022/05/26 06:57:13;;;;;;;;;;;16.50;81.30;;;;;;5061616;28;20456;-73
2022/05/26 06:59:39;;;;;;;;;;;16.50;81.20;;;;;;5064354;28;19916;-72
2022/05/26 07:02:06;;;;;;;;;;;16.50;81.10;;;;;;5064918;28;20854;-73
2022/05/26 07:04:32;;;;;;;;;;;16.50;81.60;;;;;;5062073;28;20567;-73
2022/05/26 07:06:57;;;;;;;;;;;16.50;81.30;;;;;;5064969;28;19913;-73
2022/05/26 07:09:23;;;;;;;;;;;16.50;81.20;;;;;;5045750;28;19923;-73
2022/05/26 07:11:49;;;;;;;;;;;16.60;81.10;;;;;;5045151;28;19909;-73
2022/05/26 07:14:14;;;;;;;;;;;16.60;81.60;;;;;;5059230;28;19928;-73
2022/05/26 07:16:41;;;;;;;;;;;16.60;81.30;;;;;;5064800;28;19951;-73
2022/05/26 07:19:07;;;;;;;;;;;16.60;81.30;;;;;;5062378;28;19913;-73
2022/05/26 07:21:33;;;;;;;;;;;16.60;81.70;;;;;;5064167;28;20120;-73
2022/05/26 07:23:59;;;;;;;;;;;16.60;81.50;;;;;;5062983;28;19922;-73
2022/05/26 07:26:24;;;;;;;;;;;16.70;81.60;;;;;;5065210;28;19917;-72
2022/05/26 07:28:51;;;;;;;;;;;16.70;81.60;;;;;;5066354;28;20464;-72
2022/05/26 07:31:17;;;;;;;;;;;16.70;81.60;;;;;;5069295;28;20458;-72
2022/05/26 07:33:43;;;;;;;;;;;16.80;81.80;;;;;;5058895;28;19948;-73
2022/05/26 07:41:16;;;;;;;;;;;16.80;81.60;;;;;;5068634;28;19997;-73
2022/05/26 07:41:39;;;;;;;;;;;16.90;81.40;;;;;;5069295;28;19923;-72
2022/05/26 07:44:05;;;;;;;;;;;16.90;81.60;;;;;;5066881;28;19917;-73
2022/05/26 07:46:31;;;;;;;;;;;17.00;81.80;;;;;;5063345;28;20441;-73
2022/05/26 07:48:56;;;;;;;;;;;17.00;81.20;;;;;;5041215;28;19913;-73
2022/05/26 07:51:22;;;;;;;;;;;17.10;80.90;;;;;;5064150;28;19917;-73
2022/05/26 07:53:48;;;;;;;;;;;17.20;81.10;;;;;;5046772;28;20007;-72
2022/05/26 07:56:13;;;;;;;;;;;17.20;80.90;;;;;;5061957;28;19944;-73
2022/05/26 07:58:39;;;;;;;;;;;17.30;80.70;;;;;;5068721;28;19908;-73
2022/05/26 08:01:07;;;;;;;;;;;17.30;81.20;;;;;;5065391;28;19985;-73
2022/05/26 08:03:33;;;;;;;;;;;17.30;81.00;;;;;;5068749;28;19981;-73
2022/05/26 08:05:58;;;;;;;;;;;17.30;81.00;;;;;;5065820;28;19913;-73
2022/05/26 08:08:26;;;;;;;;;;;17.30;81.20;;;;;;5060398;28;19913;-73
2022/05/26 08:10:52;;;;;;;;;;;17.40;80.70;;;;;;5054226;28;19912;-73
2022/05/26 08:13:18;;;;;;;;;;;17.40;81.10;;;;;;5068434;28;19918;-73
2022/05/26 08:15:43;;;;;;;;;;;17.40;80.90;;;;;;5065466;28;19916;-73
2022/05/26 08:18:09;;;;;;;;;;;17.40;81.00;;;;;;5068091;28;19916;-73
2022/05/26 08:20:35;;;;;;;;;;;17.40;81.10;;;;;;5064929;28;19924;-73
2022/05/26 08:23:01;;;;;;;;;;;17.40;80.80;;;;;;5067725;28;19912;-73
2022/05/26 08:25:27;;;;;;;;;;;17.50;80.90;;;;;;5067757;28;19919;-73
2022/05/26 08:27:52;;;;;;;;;;;17.50;80.40;;;;;;5065063;28;20026;-73
2022/05/26 08:30:18;;;;;;;;;;;17.60;80.30;;;;;;5068002;28;19934;-74
2022/05/26 08:32:44;;;;;;;;;;;17.60;80.20;;;;;;5063717;28;19916;-73
2022/05/26 08:35:10;;;;;;;;;;;17.60;80.70;;;;;;5047924;28;19952;-73
2022/05/26 08:37:35;;;;;;;;;;;17.60;80.10;;;;;;5057360;28;19916;-72
2022/05/26 08:40:01;;;;;;;;;;;17.70;80.10;;;;;;5047598;28;19939;-72
2022/05/26 08:42:28;;;;;;;;;;;17.60;80.30;;;;;;5051436;28;19923;-73
2022/05/26 08:44:55;;;;;;;;;;;17.60;80.50;;;;;;5047960;28;19943;-73
2022/05/26 08:47:22;;;;;;;;;;;17.60;80.20;;;;;;5053976;28;20015;-73
2022/05/26 08:49:52;;;;;;;;;;;17.60;80.50;;;;;;5068060;28;20652;-73
2022/05/26 08:52:24;;;;;;;;;;;17.60;80.60;;;;;;5065425;28;20600;-72
2022/05/26 08:54:59;;;;;;;;;;;17.70;80.30;;;;;;5067862;28;19929;-73
2022/05/26 08:57:28;;;;;;;;;;;17.60;80.20;;;;;;5064642;28;19921;-73
2022/05/26 08:59:53;;;;;;;;;;;17.60;80.50;;;;;;5067361;28;20007;-73
2022/05/26 09:02:26;;;;;;;;;;;17.70;80.30;;;;;;5065020;28;20031;-73
2022/05/26 09:04:54;;;;;;;;;;;17.80;79.80;;;;;;5055123;28;19975;-73
2022/05/26 09:12:59;;;;;;;;;;;17.90;79.50;;;;;;5050852;28;20463;-73
2022/05/26 09:15:28;;;;;;;;;;;17.90;79.40;;;;;;5067240;28;19920;-73
2022/05/26 09:17:54;;;;;;;;;;;18.00;79.40;;;;;;5064217;28;19924;-73
2022/05/26 09:20:28;;;;;;;;;;;18.10;78.70;;;;;;5066483;28;19917;-74
2022/05/26 09:22:54;;;;;;;;;;;18.20;78.50;;;;;;5064508;28;19936;-73
2022/05/26 09:25:38;;;;;;;;;;;18.20;78.20;;;;;;5066967;28;20532;-73
2022/05/26 09:28:04;;;;;;;;;;;18.30;78.50;;;;;;5046100;28;19921;-73
2022/05/26 09:30:31;;;;;;;;;;;18.30;78.20;;;;;;5067055;28;20806;-73
2022/05/26 09:32:57;;;;;;;;;;;18.40;78.00;;;;;;5064228;28;19999;-73
2022/05/26 09:35:27;;;;;;;;;;;18.40;77.70;;;;;;5063184;28;19995;-73
2022/05/26 09:37:54;;;;;;;;;;;18.40;77.80;;;;;;5063434;28;20382;-73
2022/05/26 09:40:34;;;;;;;;;;;18.30;78.00;;;;;;5060427;28;19982;-73
2022/05/26 09:43:08;;;;;;;;;;;18.30;78.10;;;;;;5066925;28;19999;-73
2022/05/26 09:45:48;;;;;;;;;;;18.30;78.10;;;;;;5063637;28;19912;-74
2022/05/26 09:48:25;;;;;;;;;;;18.30;78.20;;;;;;5065002;28;20003;-73
2022/05/26 09:51:02;;;;;;;;;;;18.30;78.20;;;;;;5061468;28;19943;-73
2022/05/26 09:53:38;;;;;;;;;;;18.30;78.30;;;;;;5067112;28;19913;-74
2022/05/26 09:56:04;;;;;;;;;;;18.20;78.20;;;;;;5048100;28;19913;-74
2022/05/26 09:58:30;;;;;;;;;;;18.40;77.80;;;;;;5047167;28;20660;-74
2022/05/26 10:01:00;;;;;;;;;;;18.50;77.40;;;;;;5042493;28;19920;-74
2022/05/26 10:03:41;;;;;;;;;;;18.40;77.30;;;;;;5067088;28;19916;-74
2022/05/26 10:06:15;;;;;;;;;;;18.50;77.40;;;;;;5059582;28;20614;-74
2022/05/26 10:08:53;;;;;;;;;;;18.50;77.20;;;;;;5042629;28;19917;-74
2022/05/26 10:11:21;;;;;;;;;;;18.60;76.90;;;;;;5059497;28;19912;-74
2022/05/26 10:13:59;;;;;;;;;;;18.60;76.80;;;;;;5067426;28;20285;-74
2022/05/26 10:16:38;;;;;;;;;;;18.60;76.80;;;;;;5064099;28;19916;-74
2022/05/26 10:19:22;;;;;;;;;;;18.60;76.70;;;;;;5067196;28;19917;-74
2022/05/26 10:21:50;;;;;;;;;;;18.80;76.10;;;;;;5063352;28;20697;-73
2022/05/26 10:24:31;;;;;;;;;;;19.00;75.70;;;;;;5066614;28;19917;-74
2022/05/26 10:26:56;;;;;;;;;;;19.10;75.50;;;;;;5064647;28;19917;-71
2022/05/26 10:29:31;;;;;;;;;;;19.20;75.20;;;;;;5065278;28;19909;-73
2022/05/26 10:31:57;;;;;;;;;;;19.30;75.10;;;;;;5063817;28;19924;-74
2022/05/26 10:34:27;;;;;;;;;;;19.30;75.10;;;;;;5051898;28;20057;-72
2022/05/26 10:36:58;;;;;;;;;;;19.40;74.90;;;;;;5056083;28;19949;-73
2022/05/26 10:39:36;;;;;;;;;;;19.40;74.90;;;;;;5049781;28;19970;-73
2022/05/26 10:42:25;;;;;;;;;;;19.50;75.50;;;;;;5055596;28;19973;-74
2022/05/26 10:45:10;;;;;;;;;;;19.60;74.40;;;;;;5047885;28;19924;-74
2022/05/26 10:47:35;;;;;;;;;;;19.60;74.10;;;;;;5055524;28;19917;-74
2022/05/26 10:50:01;;;;;;;;;;;19.60;74.50;;;;;;5046912;28;19924;-74
2022/05/26 10:52:30;;;;;;;;;;;19.60;74.50;;;;;;5050053;28;19912;-74
2022/05/26 10:55:07;;;;;;;;;;;19.50;74.80;;;;;;5045843;28;19928;-74
2022/05/26 10:57:43;;;;;;;;;;;19.60;74.40;;;;;;5053332;28;20431;-74
2022/05/26 11:00:12;;;;;;;;;;;19.70;74.10;;;;;;5066898;28;19916;-74
2022/05/26 11:02:47;;;;;;;;;;;19.90;73.70;;;;;;5064672;28;19913;-74
2022/05/26 11:05:32;;;;;;;;;;;20.00;73.30;;;;;;5067653;28;19923;-74
2022/05/26 11:08:07;;;;;;;;;;;20.00;72.90;;;;;;5041759;28;19913;-74
2022/05/26 11:10:41;;;;;;;;;;;20.10;73.50;;;;;;5026991;28;19917;-75
2022/05/26 11:13:07;;;;;;;;;;;20.20;73.30;;;;;;5044487;28;19935;-75
2022/05/26 11:18:36;;;;;;;;;;;20.40;72.10;;;;;;5065312;28;20048;-74
2022/05/26 11:21:02;;;;;;;;;;;20.50;71.30;;;;;;5048490;28;19921;-74
2022/05/26 11:23:29;;;;;;;;;;;20.70;71.40;;;;;;5063920;28;20558;-74
2022/05/26 11:25:57;;;;;;;;;;;20.70;71.10;;;;;;5065572;28;20441;-74
2022/05/26 11:28:30;;;;;;;;;;;20.80;71.30;;;;;;5063342;28;19981;-74
2022/05/26 11:36:51;;;;;;;;;;;20.90;70.30;;;;;;5026992;28;20366;-74
2022/05/26 11:39:29;;;;;;;;;;;20.90;71.10;;;;;;5036344;28;19986;-74
2022/05/26 11:42:00;;;;;;;;;;;20.80;71.00;;;;;;5045054;28;19956;-74
2022/05/26 11:44:33;;;;;;;;;;;20.80;71.50;;;;;;5060703;28;19954;-74
2022/05/26 11:47:19;;;;;;;;;;;20.80;71.30;;;;;;5044339;28;19920;-74
2022/05/26 11:49:48;;;;;;;;;;;20.80;71.00;;;;;;5052919;28;19921;-74
2022/05/26 11:52:45;;;;;;;;;;;20.80;70.80;;;;;;5040692;28;19928;-75
2022/05/26 11:55:29;;;;;;;;;;;20.70;70.60;;;;;;5050422;28;20327;-75
2022/05/26 11:58:15;;;;;;;;;;;20.70;70.70;;;;;;5064575;28;19998;-75
2022/05/26 12:00:43;;;;;;;;;;;20.60;71.20;;;;;;5062042;28;20024;-74
2022/05/26 12:03:26;;;;;;;;;;;20.50;71.00;;;;;;5064600;28;19916;-74
2022/05/26 12:05:56;;;;;;;;;;;20.50;70.60;;;;;;5049298;28;20719;-74
2022/05/26 12:08:24;;;;;;;;;;;20.40;71.60;;;;;;5027393;28;20050;-75
2022/05/26 12:10:55;;;;;;;;;;;20.50;72.00;;;;;;5056393;28;19912;-75
2022/05/26 12:13:23;;;;;;;;;;;20.60;71.70;;;;;;5065162;28;19927;-74
2022/05/26 12:16:08;;;;;;;;;;;20.60;70.30;;;;;;5064972;28;19913;-74
2022/05/26 12:18:46;;;;;;;;;;;20.70;70.20;;;;;;5067886;28;19943;-74
2022/05/26 12:21:16;;;;;;;;;;;20.70;70.40;;;;;;5064983;28;19923;-74
2022/05/26 12:23:42;;;;;;;;;;;20.60;70.30;;;;;;5067788;28;19917;-75
2022/05/26 12:26:28;;;;;;;;;;;20.60;70.30;;;;;;5065537;28;20711;-74
2022/05/26 12:28:54;;;;;;;;;;;20.60;69.10;;;;;;5054306;28;19960;-75
2022/05/26 12:31:20;;;;;;;;;;;20.70;70.00;;;;;;5058095;28;19966;-75
2022/05/26 12:33:47;;;;;;;;;;;20.80;70.40;;;;;;5058598;28;19982;-76
2022/05/26 12:36:19;;;;;;;;;;;20.80;68.90;;;;;;5051897;28;19912;-75
2022/05/26 12:39:03;;;;;;;;;;;20.90;68.70;;;;;;5058536;28;20067;-76
2022/05/26 12:41:47;;;;;;;;;;;20.90;68.10;;;;;;5057083;28;19917;-76
2022/05/26 12:44:22;;;;;;;;;;;21.00;68.10;;;;;;5069624;28;20436;-76
2022/05/26 12:46:47;;;;;;;;;;;21.10;67.60;;;;;;5048822;28;19916;-75
2022/05/26 12:49:15;;;;;;;;;;;21.10;67.80;;;;;;5067128;28;19920;-75
2022/05/26 12:51:41;;;;;;;;;;;21.10;67.60;;;;;;5037940;28;19943;-75
2022/05/26 12:54:09;;;;;;;;;;;21.10;67.90;;;;;;5028477;28;20267;-74
2022/05/26 12:56:54;;;;;;;;;;;21.10;67.90;;;;;;5038233;28;19944;-75
2022/05/26 12:59:21;;;;;;;;;;;21.10;68.00;;;;;;5069869;28;20786;-75
2022/05/26 13:01:48;;;;;;;;;;;21.10;67.80;;;;;;5064241;28;19921;-74
2022/05/26 13:04:21;;;;;;;;;;;21.20;67.50;;;;;;5067328;28;19913;-75
2022/05/26 13:06:49;;;;;;;;;;;21.40;67.00;;;;;;5064099;28;20011;-74
2022/05/26 13:09:15;;;;;;;;;;;21.40;66.40;;;;;;5056832;28;19916;-74
2022/05/26 13:11:45;;;;;;;;;;;21.30;67.00;;;;;;5046464;28;20385;-74
2022/05/26 13:14:34;;;;;;;;;;;21.30;66.50;;;;;;5049152;28;20042;-75
2022/05/26 13:17:01;;;;;;;;;;;21.30;66.50;;;;;;5051003;28;19912;-74
2022/05/26 13:19:27;;;;;;;;;;;21.40;66.70;;;;;;5066725;28;20007;-74
2022/05/26 13:21:53;;;;;;;;;;;21.50;66.30;;;;;;5067991;28;19995;-74
2022/05/26 13:24:23;;;;;;;;;;;21.60;66.60;;;;;;5055921;28;19917;-74
2022/05/26 13:26:52;;;;;;;;;;;21.60;66.50;;;;;;5046893;28;19921;-74
2022/05/26 13:29:18;;;;;;;;;;;21.60;66.40;;;;;;5044846;28;19916;-74
2022/05/26 13:34:30;;;;;;;;;;;21.70;66.80;;;;;;5048099;28;19923;-74
2022/05/26 13:36:56;;;;;;;;;;;21.80;65.80;;;;;;5046363;28;19917;-74
2022/05/26 13:39:23;;;;;;;;;;;21.90;65.60;;;;;;5052270;28;19921;-74
2022/05/26 13:41:51;;;;;;;;;;;22.00;65.40;;;;;;5029722;28;19912;-74
2022/05/26 13:44:30;;;;;;;;;;;22.00;65.50;;;;;;5057317;28;20058;-74
2022/05/26 13:46:57;;;;;;;;;;;22.10;65.50;;;;;;5045968;28;19920;-74
2022/05/26 13:49:29;;;;;;;;;;;22.10;65.80;;;;;;5056012;28;19974;-74
2022/05/26 13:51:55;;;;;;;;;;;22.20;65.70;;;;;;5066014;28;19916;-75
2022/05/26 13:54:26;;;;;;;;;;;22.00;65.30;;;;;;5044488;28;19942;-74
2022/05/26 13:56:52;;;;;;;;;;;22.00;65.90;;;;;;5066100;28;19944;-74
2022/05/26 13:59:18;;;;;;;;;;;22.00;66.10;;;;;;5063601;28;19916;-74
2022/05/26 14:02:04;;;;;;;;;;;21.90;66.20;;;;;;5047921;28;19938;-74
2022/05/26 14:04:31;;;;;;;;;;;21.80;66.80;;;;;;5063252;28;19955;-74
2022/05/26 14:06:57;;;;;;;;;;;21.70;67.10;;;;;;5065860;28;19913;-74
2022/05/26 14:09:33;;;;;;;;;;;21.70;67.60;;;;;;5057551;28;19928;-74
2022/05/26 14:12:03;;;;;;;;;;;21.60;67.90;;;;;;5052469;28;20618;-75
2022/05/26 14:14:29;;;;;;;;;;;21.60;67.10;;;;;;5060634;28;19912;-74
2022/05/26 14:16:55;;;;;;;;;;;21.60;67.30;;;;;;5065688;28;19982;-74
2022/05/26 14:19:24;;;;;;;;;;;21.70;67.00;;;;;;5062639;28;19912;-74
2022/05/26 14:21:51;;;;;;;;;;;21.70;67.10;;;;;;5047410;28;19952;-75
2022/05/26 14:24:16;;;;;;;;;;;21.60;67.30;;;;;;5055787;28;19912;-75
2022/05/26 14:26:58;;;;;;;;;;;21.60;67.20;;;;;;5062533;28;19924;-74
2022/05/26 14:29:23;;;;;;;;;;;21.50;67.70;;;;;;5065692;28;19921;-74
2022/05/26 14:31:59;;;;;;;;;;;21.50;67.20;;;;;;5062570;28;19909;-75
2022/05/26 14:34:30;;;;;;;;;;;21.50;67.80;;;;;;5050229;28;19924;-74
2022/05/26 14:36:57;;;;;;;;;;;21.50;68.30;;;;;;5061391;28;20658;-74
2022/05/26 14:39:22;;;;;;;;;;;21.50;67.70;;;;;;5031682;28;20574;-74
2022/05/26 14:41:48;;;;;;;;;;;21.50;67.80;;;;;;5059568;28;19924;-74
2022/05/26 14:44:14;;;;;;;;;;;21.40;67.90;;;;;;5066485;28;19917;-74
2022/05/26 14:46:39;;;;;;;;;;;21.40;67.80;;;;;;5055888;28;19912;-74
2022/05/26 14:49:05;;;;;;;;;;;21.30;68.30;;;;;;5066529;28;19917;-75
2022/05/26 14:51:32;;;;;;;;;;;21.30;68.30;;;;;;5064585;28;19915;-75
2022/05/26 14:56:45;;;;;;;;;;;21.40;67.50;;;;;;5063912;28;19939;-75
2022/05/26 14:59:11;;;;;;;;;;;21.40;67.00;;;;;;5058647;28;20378;-74
2022/05/26 15:01:37;;;;;;;;;;;21.40;67.80;;;;;;5050615;28;19934;-74
2022/05/26 15:04:03;;;;;;;;;;;21.40;67.40;;;;;;5066170;28;19916;-74
2022/05/26 15:06:36;;;;;;;;;;;21.40;66.90;;;;;;5063209;28;20556;-75
2022/05/26 15:09:01;;;;;;;;;;;21.50;67.40;;;;;;5033984;28;19917;-74